createdAt,value
2022-10-22T00:02:20.775Z,20.27
2022-10-22T00:06:20.906Z,20.40
2022-10-22T00:10:21.074Z,20.33
2022-10-22T00:14:23.820Z,20.18
2022-10-22T00:18:23.902Z,20.19
2022-10-22T00:22:24.052Z,20.39
2022-10-22T00:26:24.669Z,20.49
2022-10-22T00:30:27.474Z,20.29
2022-10-22T00:34:30.032Z,20.02
2022-10-22T00:38:30.171Z,20.28
2022-10-22T00:42:32.188Z,20.22
2022-10-22T00:46:35.095Z,20.42
2022-10-22T00:50:38.876Z,20.53
2022-10-22T00:54:40.354Z,20.38
2022-10-22T00:58:48.011Z,20.62
2022-10-22T01:02:53.497Z,20.52
2022-10-22T01:06:54.314Z,20.55
2022-10-22T01:11:10.699Z,20.37
2022-10-22T01:15:25.333Z,20.17
2022-10-22T01:19:48.697Z,20.32
2022-10-22T01:24:21.286Z,20.32
2022-10-22T01:28:30.665Z,20.38
2022-10-22T01:32:40.569Z,20.40
2022-10-22T01:36:42.785Z,20.41
2022-10-22T01:40:45.555Z,20.31
2022-10-22T01:44:46.622Z,20.39
2022-10-22T01:49:13.669Z,20.35
2022-10-22T01:53:26.157Z,20.56
2022-10-22T01:57:39.760Z,20.42
2022-10-22T02:01:51.725Z,20.53
2022-10-22T02:06:02.366Z,20.61
2022-10-22T02:10:04.039Z,20.56
2022-10-22T02:14:09.762Z,20.32
2022-10-22T02:18:12.941Z,20.22
2022-10-22T02:22:16.417Z,20.15
2022-10-22T02:26:31.119Z,20.16
2022-10-22T02:30:31.500Z,20.33
2022-10-22T02:34:34.813Z,20.32
2022-10-22T02:38:39.817Z,20.30
2022-10-22T02:42:43.235Z,20.29
2022-10-22T02:46:46.101Z,20.23
2022-10-22T02:50:46.553Z,20.06
2022-10-22T02:54:49.256Z,20.18
2022-10-22T02:58:49.409Z,20.23
2022-10-22T03:02:49.525Z,20.15
2022-10-22T03:06:49.697Z,20.18
2022-10-22T03:10:52.422Z,20.13
2022-10-22T03:14:52.568Z,20.07
2022-10-22T03:18:52.675Z,20.20
2022-10-22T03:22:53.007Z,20.12
2022-10-22T03:26:56.068Z,20.07
2022-10-22T03:30:56.300Z,19.94
2022-10-22T03:34:56.444Z,19.79
2022-10-22T03:38:57.075Z,19.88
2022-10-22T03:43:01.343Z,19.57
2022-10-22T03:47:02.747Z,19.46
2022-10-22T03:51:03.101Z,19.70
2022-10-22T03:55:03.180Z,19.86
2022-10-22T03:59:06.547Z,20.01
2022-10-22T04:03:07.458Z,19.99
2022-10-22T04:07:08.264Z,19.99
2022-10-22T04:11:08.584Z,20.17
2022-10-22T04:15:12.809Z,20.06
2022-10-22T04:19:14.500Z,20.16
2022-10-22T04:23:15.085Z,19.94
2022-10-22T04:27:15.142Z,19.98
2022-10-22T04:31:21.185Z,20.01
2022-10-22T04:35:21.518Z,20.08
2022-10-22T04:39:21.613Z,19.97
2022-10-22T04:43:21.724Z,20.05
2022-10-22T04:47:24.478Z,20.10
2022-10-22T04:51:27.207Z,20.15
2022-10-22T04:55:27.319Z,20.14
2022-10-22T04:59:27.448Z,20.31
2022-10-22T05:03:31.018Z,20.23
2022-10-22T05:07:31.176Z,20.34
2022-10-22T05:11:36.614Z,20.28
2022-10-22T05:15:36.928Z,20.44
2022-10-22T05:19:40.241Z,20.42
2022-10-22T05:23:40.691Z,20.36
2022-10-22T05:27:41.064Z,20.52
2022-10-22T05:31:41.656Z,20.73
2022-10-22T05:35:46.762Z,20.80
2022-10-22T05:39:47.125Z,20.84
2022-10-22T05:43:47.744Z,20.60
2022-10-22T05:47:47.870Z,20.67
2022-10-22T05:51:50.624Z,20.65
2022-10-22T05:55:50.745Z,20.53
2022-10-22T05:59:50.861Z,20.39
2022-10-22T06:03:52.127Z,20.28
2022-10-22T06:07:55.063Z,20.08
2022-10-22T06:11:55.739Z,20.41
2022-10-22T06:15:56.252Z,20.34
2022-10-22T06:19:56.474Z,20.33
2022-10-22T06:24:00.212Z,20.36
2022-10-22T06:28:00.407Z,20.62
2022-10-22T06:32:00.556Z,20.60
2022-10-22T06:36:08.853Z,20.33
2022-10-22T06:40:13.778Z,20.46
2022-10-22T06:44:19.215Z,20.57
2022-10-22T06:48:19.362Z,20.55
2022-10-22T06:52:20.315Z,20.65
2022-10-22T06:56:25.815Z,20.67
2022-10-22T07:00:26.441Z,20.79
2022-10-22T07:04:26.651Z,20.85
2022-10-22T07:08:26.912Z,21.00
2022-10-22T07:12:29.943Z,21.09
2022-10-22T07:16:32.471Z,21.03
2022-10-22T07:20:32.953Z,21.00
2022-10-22T07:24:33.280Z,20.90
2022-10-22T07:28:38.029Z,20.90
2022-10-22T07:32:38.237Z,21.30
2022-10-22T07:36:38.461Z,21.50
2022-10-22T07:40:39.747Z,21.51
2022-10-22T07:44:42.621Z,21.85
2022-10-22T07:48:42.777Z,21.86
2022-10-22T07:52:43.544Z,22.41
2022-10-22T07:56:43.959Z,22.64
2022-10-22T08:00:47.286Z,22.32
2022-10-22T08:04:47.755Z,22.31
2022-10-22T08:08:48.601Z,22.27
2022-10-22T08:12:48.799Z,22.46
2022-10-22T08:16:51.770Z,22.53
2022-10-22T08:20:51.868Z,22.94
2022-10-22T08:24:52.101Z,23.39
2022-10-22T08:28:52.251Z,22.84
2022-10-22T08:32:55.110Z,22.82
2022-10-22T08:36:55.257Z,22.47
2022-10-22T08:40:59.704Z,22.82
2022-10-22T08:45:15.241Z,22.84
2022-10-22T08:49:25.542Z,22.80
2022-10-22T08:53:37.186Z,22.37
2022-10-22T08:57:54.819Z,22.18
2022-10-22T09:01:57.313Z,22.06
2022-10-22T09:06:11.073Z,22.37
2022-10-22T09:10:15.385Z,22.29
2022-10-22T09:14:20.048Z,22.32
2022-10-22T09:18:37.994Z,22.43
2022-10-22T09:22:50.986Z,22.06
2022-10-22T09:26:51.241Z,22.50
2022-10-22T09:30:51.993Z,22.32
2022-10-22T09:34:59.000Z,22.41
2022-10-22T09:39:02.447Z,22.82
2022-10-22T09:43:03.088Z,23.02
2022-10-22T09:47:03.483Z,23.56
2022-10-22T09:51:21.488Z,23.40
2022-10-22T09:55:27.051Z,23.84
2022-10-22T09:59:36.099Z,24.29
2022-10-22T10:03:37.613Z,24.42
2022-10-22T10:07:39.697Z,25.61
2022-10-22T10:11:51.677Z,25.08
2022-10-22T10:16:03.632Z,24.61
2022-10-22T10:20:20.930Z,24.24
2022-10-22T10:24:34.592Z,25.20
2022-10-22T10:29:05.093Z,25.35
2022-10-22T10:33:19.503Z,25.52
2022-10-22T10:37:26.292Z,25.12
2022-10-22T10:41:41.526Z,25.65
2022-10-22T10:46:00.251Z,25.95
2022-10-22T10:50:19.581Z,25.78
2022-10-22T10:59:15.279Z,25.82
2022-10-22T11:04:14.610Z,26.45
2022-10-22T11:08:21.752Z,26.75
2022-10-22T11:12:29.518Z,26.24
2022-10-22T11:16:38.055Z,24.98
2022-10-22T11:20:54.949Z,24.76
2022-10-22T11:25:03.239Z,25.47
2022-10-22T11:29:06.331Z,25.58
2022-10-22T11:33:14.088Z,27.99
2022-10-22T11:37:18.354Z,28.80
2022-10-22T11:41:24.768Z,27.83
2022-10-22T11:45:34.767Z,26.97
2022-10-22T11:49:46.662Z,27.77
2022-10-22T11:53:57.983Z,27.73
2022-10-22T11:58:02.449Z,27.52
2022-10-22T12:02:03.140Z,27.28
2022-10-22T12:06:21.853Z,27.04
2022-10-22T12:10:31.268Z,27.17
2022-10-22T12:14:37.293Z,28.17
2022-10-22T12:18:45.717Z,29.44
2022-10-22T12:22:46.763Z,29.01
2022-10-22T12:26:49.954Z,28.84
2022-10-22T12:30:50.599Z,28.43
2022-10-22T12:34:53.811Z,30.93
2022-10-22T12:38:54.416Z,32.55
2022-10-22T12:43:00.571Z,32.70
2022-10-22T12:47:01.535Z,31.83
2022-10-22T12:51:07.239Z,30.85
2022-10-22T12:55:10.767Z,29.50
2022-10-22T12:59:24.564Z,28.77
2022-10-22T13:03:33.284Z,29.45
2022-10-22T13:07:44.072Z,29.48
2022-10-22T13:11:52.774Z,29.15
2022-10-22T13:15:56.931Z,29.91
2022-10-22T13:20:05.527Z,29.92
2022-10-22T13:24:22.876Z,28.78
2022-10-22T13:28:25.428Z,28.86
2022-10-22T13:32:35.692Z,28.65
2022-10-22T13:36:36.456Z,28.21
2022-10-22T13:40:36.849Z,28.44
2022-10-22T13:44:37.138Z,29.14
2022-10-22T13:48:40.103Z,29.34
2022-10-22T13:52:44.973Z,29.16
2022-10-22T13:56:45.083Z,28.90
2022-10-22T14:00:48.607Z,28.37
2022-10-22T14:04:52.272Z,27.95
2022-10-22T14:08:59.415Z,28.67
2022-10-22T14:12:59.519Z,28.71
2022-10-22T14:16:59.710Z,27.96
2022-10-22T14:21:07.531Z,28.05
2022-10-22T14:25:09.068Z,28.82
2022-10-22T14:29:10.598Z,28.61
2022-10-22T14:33:17.703Z,29.15
2022-10-22T14:37:24.977Z,29.61
2022-10-22T14:41:27.772Z,28.76
2022-10-22T14:45:30.125Z,29.21
2022-10-22T14:49:30.323Z,28.60
2022-10-22T14:53:33.047Z,29.65
2022-10-22T14:57:34.450Z,28.41
2022-10-22T15:01:34.708Z,28.60
2022-10-22T15:05:36.309Z,28.13
2022-10-22T15:09:39.073Z,28.17
2022-10-22T15:13:39.463Z,28.51
2022-10-22T15:17:39.859Z,28.69
2022-10-22T15:25:46.741Z,28.05
2022-10-22T15:29:46.858Z,28.10
2022-10-22T15:33:47.131Z,28.19
2022-10-22T15:37:47.392Z,28.04
2022-10-22T15:41:51.384Z,27.39
2022-10-22T15:46:12.865Z,26.84
2022-10-22T15:50:13.007Z,26.65
2022-10-22T15:54:18.188Z,26.52
2022-10-22T15:58:21.031Z,26.36
2022-10-22T16:02:21.324Z,25.83
2022-10-22T16:06:21.553Z,25.53
2022-10-22T16:10:21.904Z,25.18
2022-10-22T16:14:26.383Z,23.84
2022-10-22T16:18:26.732Z,23.69
2022-10-22T16:22:27.400Z,23.36
2022-10-22T16:26:27.595Z,23.67
2022-10-22T16:30:30.405Z,23.67
2022-10-22T16:34:30.891Z,23.67
2022-10-22T16:38:31.524Z,23.59
2022-10-22T16:42:32.205Z,23.63
2022-10-22T16:46:38.338Z,23.36
2022-10-22T16:50:41.946Z,22.89
2022-10-22T16:54:42.157Z,22.88
2022-10-22T16:58:47.157Z,22.53
2022-10-22T17:02:55.722Z,22.31
2022-10-22T17:06:56.086Z,22.02
2022-10-22T17:10:56.397Z,21.91
2022-10-22T17:14:56.626Z,21.79
2022-10-22T17:19:00.382Z,21.56
2022-10-22T17:23:00.617Z,21.57
2022-10-22T17:27:00.797Z,21.43
2022-10-22T17:31:10.124Z,21.24
2022-10-22T17:35:13.921Z,21.08
2022-10-22T17:39:20.365Z,20.94
2022-10-22T17:43:20.853Z,20.80
2022-10-22T17:47:22.187Z,20.66
2022-10-22T17:51:27.736Z,20.59
2022-10-22T17:55:29.314Z,20.56
2022-10-22T17:59:29.547Z,20.21
2022-10-22T18:03:29.923Z,20.17
2022-10-22T18:07:32.660Z,20.11
2022-10-22T18:11:34.469Z,19.94
2022-10-22T18:15:36.454Z,19.81
2022-10-22T18:19:36.552Z,19.59
2022-10-22T18:23:39.506Z,19.64
2022-10-22T18:27:40.354Z,19.54
2022-10-22T18:31:40.694Z,19.59
2022-10-22T18:35:41.597Z,19.42
2022-10-22T18:39:44.506Z,19.39
2022-10-22T18:43:44.697Z,19.23
2022-10-22T18:47:45.101Z,19.19
2022-10-22T18:51:45.280Z,19.19
2022-10-22T18:55:48.120Z,19.09
2022-10-22T18:59:48.267Z,19.09
2022-10-22T19:03:48.973Z,19.00
2022-10-22T19:07:49.104Z,19.04
2022-10-22T19:11:51.813Z,18.90
2022-10-22T19:15:52.417Z,18.77
2022-10-22T19:19:52.530Z,18.84
2022-10-22T19:23:52.689Z,18.69
2022-10-22T19:27:55.536Z,18.54
2022-10-22T19:31:55.951Z,18.57
2022-10-22T19:35:56.439Z,18.24
2022-10-22T19:39:56.657Z,18.13
2022-10-22T19:44:01.259Z,18.24
2022-10-22T19:48:01.469Z,18.22
2022-10-22T19:52:01.646Z,18.20
2022-10-22T19:56:02.628Z,17.07
2022-10-22T20:00:05.681Z,17.17
2022-10-22T20:04:10.220Z,17.44
2022-10-22T20:08:10.555Z,17.21
2022-10-22T20:12:11.150Z,17.33
2022-10-22T20:16:14.746Z,17.27
2022-10-22T20:20:14.905Z,17.46
2022-10-22T20:24:17.963Z,17.40
2022-10-22T20:28:18.752Z,17.31
2022-10-22T20:32:22.138Z,17.42
2022-10-22T20:36:25.407Z,17.12
2022-10-22T20:40:28.040Z,17.43
2022-10-22T20:44:28.213Z,17.40
2022-10-22T20:48:32.121Z,17.35
2022-10-22T20:52:32.458Z,17.21
2022-10-22T20:56:32.929Z,17.15
2022-10-22T21:00:35.999Z,16.95
2022-10-22T21:04:40.519Z,17.21
2022-10-22T21:08:43.308Z,17.14
2022-10-22T21:12:44.197Z,16.92
2022-10-22T21:16:47.148Z,16.83
2022-10-22T21:20:49.849Z,16.94
2022-10-22T21:24:50.008Z,16.62
2022-10-22T21:28:50.878Z,16.89
2022-10-22T21:32:51.846Z,16.85
2022-10-22T21:36:54.626Z,16.90
2022-10-22T21:40:55.121Z,16.93
2022-10-22T21:44:55.415Z,16.65
2022-10-22T21:49:01.928Z,16.76
2022-10-22T21:53:04.806Z,16.85
2022-10-22T21:57:05.167Z,16.67
2022-10-22T22:01:05.813Z,16.79
2022-10-22T22:05:06.104Z,16.77
2022-10-22T22:09:09.466Z,16.60
2022-10-22T22:13:09.716Z,16.58
2022-10-22T22:17:10.715Z,16.59
2022-10-22T22:21:14.512Z,16.13
2022-10-22T22:25:17.562Z,16.46
2022-10-22T22:29:17.723Z,16.38
2022-10-22T22:33:17.895Z,16.64
2022-10-22T22:37:18.043Z,16.60
2022-10-22T22:41:20.875Z,16.70
2022-10-22T22:45:21.239Z,16.77
2022-10-22T22:49:21.384Z,17.10
2022-10-22T22:53:21.561Z,16.99
2022-10-22T22:57:24.367Z,17.15
2022-10-22T23:01:27.799Z,17.11
2022-10-22T23:05:28.041Z,17.27
2022-10-22T23:09:28.358Z,17.40
2022-10-22T23:13:31.278Z,17.43
2022-10-22T23:17:31.635Z,17.39
2022-10-22T23:21:34.857Z,17.36
2022-10-22T23:25:35.275Z,17.41
2022-10-22T23:29:38.813Z,17.49
2022-10-22T23:33:38.934Z,17.51
2022-10-22T23:37:39.260Z,17.58
2022-10-22T23:41:40.376Z,17.52
2022-10-22T23:45:43.086Z,17.44
2022-10-22T23:49:43.270Z,17.45
2022-10-22T23:53:45.481Z,17.66
2022-10-22T23:57:45.604Z,17.66
